sensor_id;sensor_type;location;lat;lon;timestamp;pressure;altitude;pressure_sealevel;temperature;humidity
37878;BME280;23715;53.652;8.516;2022-09-09T04:44:38;102800.41;;;13.93;100.00
37878;BME280;23715;53.652;8.516;2022-09-09T04:49:40;102712.91;;;15.94;100.00
37878;BME280;23715;53.652;8.516;2022-09-09T04:54:41;102496.82;;;16.31;100.00
37878;BME280;23715;53.652;8.516;2022-09-09T04:59:42;102179.33;;;16.70;100.00
37878;BME280;23715;53.652;8.516;2022-09-09T05:04:43;101898.80;;;17.11;100.00
37878;BME280;23715;53.652;8.516;2022-09-09T05:09:45;101638.13;;;17.00;100.00
37878;BME280;23715;53.652;8.516;2022-09-09T05:14:48;101456.03;;;16.91;100.00
37878;BME280;23715;53.652;8.516;2022-09-09T05:19:49;101343.64;;;16.92;100.00
37878;BME280;23715;53.652;8.516;2022-09-09T05:24:51;101275.84;;;17.25;100.00
37878;BME280;23715;53.652;8.516;2022-09-09T05:29:52;101212.95;;;17.08;100.00
37878;BME280;23715;53.652;8.516;2022-09-09T05:34:52;101202.13;;;17.36;100.00
37878;BME280;23715;53.652;8.516;2022-09-09T05:39:53;101167.98;;;17.46;100.00
37878;BME280;23715;53.652;8.516;2022-09-09T05:44:53;101148.44;;;17.43;100.00
37878;BME280;23715;53.652;8.516;2022-09-09T05:49:54;101138.72;;;17.77;100.00
37878;BME280;23715;53.652;8.516;2022-09-09T05:54:54;101118.53;;;17.39;100.00
37878;BME280;23715;53.652;8.516;2022-09-09T05:59:56;101129.39;;;17.51;100.00
37878;BME280;23715;53.652;8.516;2022-09-09T06:04:56;101110.16;;;17.77;100.00
37878;BME280;23715;53.652;8.516;2022-09-09T06:09:57;101104.27;;;17.36;100.00
37878;BME280;23715;53.652;8.516;2022-09-09T06:14:58;101104.27;;;17.36;100.00
37878;BME280;23715;53.652;8.516;2022-09-09T06:19:58;101100.84;;;17.51;100.00
37878;BME280;23715;53.652;8.516;2022-09-09T06:24:59;101109.00;;;17.51;100.00
37878;BME280;23715;53.652;8.516;2022-09-09T06:30:00;101106.27;;;17.67;100.00
37878;BME280;23715;53.652;8.516;2022-09-09T06:35:02;101105.59;;;17.78;100.00
37878;BME280;23715;53.652;8.516;2022-09-09T06:40:03;101112.28;;;18.23;100.00
37878;BME280;23715;53.652;8.516;2022-09-09T06:45:04;101106.86;;;18.19;100.00
37878;BME280;23715;53.652;8.516;2022-09-09T06:50:08;101100.28;;;18.05;100.00
37878;BME280;23715;53.652;8.516;2022-09-09T06:55:10;101098.77;;;17.94;100.00
37878;BME280;23715;53.652;8.516;2022-09-09T07:00:13;101110.00;;;17.95;100.00
37878;BME280;23715;53.652;8.516;2022-09-09T07:05:14;101103.31;;;18.14;100.00
37878;BME280;23715;53.652;8.516;2022-09-09T07:10:16;101104.12;;;18.23;100.00
37878;BME280;23715;53.652;8.516;2022-09-09T07:15:17;101104.06;;;18.39;100.00
37878;BME280;23715;53.652;8.516;2022-09-09T07:20:19;101092.16;;;18.40;100.00
37878;BME280;23715;53.652;8.516;2022-09-09T07:25:20;101094.58;;;18.62;100.00
37878;BME280;23715;53.652;8.516;2022-09-09T07:30:21;101083.51;;;18.64;100.00
37878;BME280;23715;53.652;8.516;2022-09-09T07:35:22;101068.25;;;19.09;100.00
37878;BME280;23715;53.652;8.516;2022-09-09T07:40:23;101065.39;;;19.02;100.00
37878;BME280;23715;53.652;8.516;2022-09-09T07:45:25;101062.09;;;19.11;100.00
37878;BME280;23715;53.652;8.516;2022-09-09T07:50:27;101053.45;;;19.26;100.00
37878;BME280;23715;53.652;8.516;2022-09-09T07:55:28;101050.77;;;19.22;100.00
37878;BME280;23715;53.652;8.516;2022-09-09T08:00:29;101060.09;;;19.28;100.00
37878;BME280;23715;53.652;8.516;2022-09-09T08:05:30;101058.23;;;19.05;100.00
37878;BME280;23715;53.652;8.516;2022-09-09T08:10:30;101055.55;;;19.39;100.00
37878;BME280;23715;53.652;8.516;2022-09-09T08:15:32;101055.39;;;19.37;100.00
37878;BME280;23715;53.652;8.516;2022-09-09T08:20:33;101051.34;;;19.33;100.00
37878;BME280;23715;53.652;8.516;2022-09-09T08:25:35;101059.08;;;19.25;100.00
37878;BME280;23715;53.652;8.516;2022-09-09T08:30:36;101062.91;;;19.35;100.00
37878;BME280;23715;53.652;8.516;2022-09-09T08:35:38;101049.42;;;19.56;100.00
37878;BME280;23715;53.652;8.516;2022-09-09T08:40:41;101047.97;;;19.64;100.00
37878;BME280;23715;53.652;8.516;2022-09-09T08:50:51;101037.70;;;20.04;100.00
37878;BME280;23715;53.652;8.516;2022-09-09T08:56:00;101037.70;;;20.00;100.00
37878;BME280;23715;53.652;8.516;2022-09-09T09:11:56;101038.79;;;20.46;100.00
37878;BME280;23715;53.652;8.516;2022-09-09T09:17:04;101033.72;;;20.69;100.00
37878;BME280;23715;53.652;8.516;2022-09-09T09:27:16;101030.59;;;20.83;100.00
37878;BME280;23715;53.652;8.516;2022-09-09T09:32:20;101029.66;;;21.19;100.00
37878;BME280;23715;53.652;8.516;2022-09-09T09:37:30;101029.87;;;21.17;100.00
37878;BME280;23715;53.652;8.516;2022-09-09T09:42:31;101030.34;;;21.21;100.00
37878;BME280;23715;53.652;8.516;2022-09-09T09:47:32;101024.00;;;21.20;100.00
37878;BME280;23715;53.652;8.516;2022-09-09T09:52:38;101016.20;;;21.06;100.00
37878;BME280;23715;53.652;8.516;2022-09-09T09:57:41;101022.24;;;21.23;100.00
37878;BME280;23715;53.652;8.516;2022-09-09T10:02:45;101015.70;;;21.35;100.00
37878;BME280;23715;53.652;8.516;2022-09-09T10:08:09;101015.17;;;21.36;100.00
37878;BME280;23715;53.652;8.516;2022-09-09T10:13:11;101011.27;;;21.06;100.00
37878;BME280;23715;53.652;8.516;2022-09-09T10:18:36;101008.83;;;21.29;100.00
37878;BME280;23715;53.652;8.516;2022-09-09T10:39:31;100969.00;;;22.37;100.00
37878;BME280;23715;53.652;8.516;2022-09-09T10:55:17;100926.16;;;22.94;100.00
37878;BME280;23715;53.652;8.516;2022-09-09T11:00:24;100926.16;;;22.94;100.00
37878;BME280;23715;53.652;8.516;2022-09-09T11:10:41;100943.27;;;23.09;100.00
37878;BME280;23715;53.652;8.516;2022-09-09T11:15:44;100949.06;;;23.17;100.00
37878;BME280;23715;53.652;8.516;2022-09-09T11:20:45;100934.06;;;23.26;100.00
37878;BME280;23715;53.652;8.516;2022-09-09T11:25:50;100933.73;;;22.98;100.00
37878;BME280;23715;53.652;8.516;2022-09-09T11:41:38;100934.72;;;23.57;100.00
37878;BME280;23715;53.652;8.516;2022-09-09T11:46:39;100929.05;;;23.52;100.00
37878;BME280;23715;53.652;8.516;2022-09-09T11:51:41;100920.41;;;23.49;100.00
37878;BME280;23715;53.652;8.516;2022-09-09T11:56:45;100923.23;;;23.51;100.00
37878;BME280;23715;53.652;8.516;2022-09-09T12:01:57;100922.00;;;23.83;100.00
37878;BME280;23715;53.652;8.516;2022-09-09T12:17:30;100903.56;;;24.77;100.00
37878;BME280;23715;53.652;8.516;2022-09-09T12:27:48;100898.67;;;24.79;100.00
37878;BME280;23715;53.652;8.516;2022-09-09T12:32:48;100899.22;;;24.62;100.00
37878;BME280;23715;53.652;8.516;2022-09-09T12:37:57;100899.72;;;24.36;100.00
37878;BME280;23715;53.652;8.516;2022-09-09T12:42:55;100903.66;;;24.15;100.00
37878;BME280;23715;53.652;8.516;2022-09-09T12:48:03;100898.86;;;24.04;100.00
37878;BME280;23715;53.652;8.516;2022-09-09T12:53:10;100895.02;;;23.89;100.00
37878;BME280;23715;53.652;8.516;2022-09-09T12:58:14;100907.71;;;23.90;100.00
37878;BME280;23715;53.652;8.516;2022-09-09T13:03:20;100916.20;;;23.69;100.00
37878;BME280;23715;53.652;8.516;2022-09-09T13:08:20;100927.97;;;23.11;100.00
37878;BME280;23715;53.652;8.516;2022-09-09T13:13:23;100947.22;;;22.67;100.00
37878;BME280;23715;53.652;8.516;2022-09-09T13:18:29;100965.79;;;22.78;100.00
37878;BME280;23715;53.652;8.516;2022-09-09T13:23:32;100979.84;;;22.11;100.00
37878;BME280;23715;53.652;8.516;2022-09-09T13:28:34;100970.29;;;21.41;100.00
37878;BME280;23715;53.652;8.516;2022-09-09T13:33:37;100970.29;;;21.41;100.00
37878;BME280;23715;53.652;8.516;2022-09-09T13:43:53;100996.16;;;21.10;100.00
37878;BME280;23715;53.652;8.516;2022-09-09T13:48:59;101005.99;;;20.94;100.00
37878;BME280;23715;53.652;8.516;2022-09-09T13:54:00;101008.99;;;20.99;100.00
37878;BME280;23715;53.652;8.516;2022-09-09T13:59:01;101014.53;;;20.95;100.00
37878;BME280;23715;53.652;8.516;2022-09-09T14:04:02;101010.77;;;20.85;100.00
37878;BME280;23715;53.652;8.516;2022-09-09T14:09:02;100996.52;;;20.68;100.00
37878;BME280;23715;53.652;8.516;2022-09-09T14:14:03;101007.28;;;20.98;100.00
37878;BME280;23715;53.652;8.516;2022-09-09T14:19:04;101034.92;;;21.31;100.00
37878;BME280;23715;53.652;8.516;2022-09-09T14:24:05;101052.78;;;21.66;100.00
37878;BME280;23715;53.652;8.516;2022-09-09T14:29:06;101049.55;;;21.84;100.00
37878;BME280;23715;53.652;8.516;2022-09-09T14:34:06;101039.91;;;22.36;100.00
37878;BME280;23715;53.652;8.516;2022-09-09T14:39:08;101031.66;;;22.60;100.00
37878;BME280;23715;53.652;8.516;2022-09-09T14:44:08;101025.98;;;22.62;100.00
37878;BME280;23715;53.652;8.516;2022-09-09T14:49:09;101025.81;;;21.98;100.00
37878;BME280;23715;53.652;8.516;2022-09-09T14:54:10;101025.64;;;21.64;100.00
37878;BME280;23715;53.652;8.516;2022-09-09T14:59:11;101030.75;;;21.74;100.00
37878;BME280;23715;53.652;8.516;2022-09-09T15:04:13;101014.16;;;21.65;100.00
37878;BME280;23715;53.652;8.516;2022-09-09T15:09:17;101005.81;;;21.62;100.00
37878;BME280;23715;53.652;8.516;2022-09-09T15:14:17;100997.29;;;21.44;100.00
37878;BME280;23715;53.652;8.516;2022-09-09T15:19:18;100984.36;;;21.38;100.00
37878;BME280;23715;53.652;8.516;2022-09-09T15:24:19;100984.21;;;21.29;100.00
37878;BME280;23715;53.652;8.516;2022-09-09T15:29:19;100981.42;;;21.11;100.00
37878;BME280;23715;53.652;8.516;2022-09-09T15:34:19;100976.48;;;21.11;100.00
37878;BME280;23715;53.652;8.516;2022-09-09T15:39:20;100974.03;;;20.94;100.00
37878;BME280;23715;53.652;8.516;2022-09-09T15:44:21;100968.06;;;20.84;100.00
37878;BME280;23715;53.652;8.516;2022-09-09T15:49:24;100962.66;;;20.69;100.00
37878;BME280;23715;53.652;8.516;2022-09-09T15:54:26;100960.24;;;20.81;100.00
37878;BME280;23715;53.652;8.516;2022-09-09T15:59:29;100970.68;;;20.81;100.00
37878;BME280;23715;53.652;8.516;2022-09-09T16:04:30;100969.42;;;20.73;100.00
37878;BME280;23715;53.652;8.516;2022-09-09T16:09:31;100957.39;;;20.78;100.00
37878;BME280;23715;53.652;8.516;2022-09-09T16:14:32;100949.00;;;20.80;100.00
37878;BME280;23715;53.652;8.516;2022-09-09T16:19:35;100950.29;;;20.95;100.00
37878;BME280;23715;53.652;8.516;2022-09-09T16:24:35;100960.62;;;20.89;100.00
37878;BME280;23715;53.652;8.516;2022-09-09T16:29:36;100963.05;;;20.98;100.00
37878;BME280;23715;53.652;8.516;2022-09-09T16:34:36;100975.84;;;20.98;100.00
37878;BME280;23715;53.652;8.516;2022-09-09T16:39:36;100994.67;;;20.86;100.00
37878;BME280;23715;53.652;8.516;2022-09-09T16:44:37;101010.89;;;20.88;100.00
37878;BME280;23715;53.652;8.516;2022-09-09T16:49:36;101028.70;;;20.62;100.00
37878;BME280;23715;53.652;8.516;2022-09-09T16:54:37;101027.89;;;20.57;100.00
37878;BME280;23715;53.652;8.516;2022-09-09T16:59:37;101028.98;;;20.52;100.00
37878;BME280;23715;53.652;8.516;2022-09-09T17:04:58;101027.71;;;20.33;100.00
37878;BME280;23715;53.652;8.516;2022-09-09T17:09:59;101034.38;;;20.20;100.00
37878;BME280;23715;53.652;8.516;2022-09-09T17:14:59;101033.73;;;20.43;100.00
37878;BME280;23715;53.652;8.516;2022-09-09T17:20:00;101038.94;;;20.23;100.00
37878;BME280;23715;53.652;8.516;2022-09-09T17:25:01;101044.93;;;20.23;100.00
37878;BME280;23715;53.652;8.516;2022-09-09T17:30:02;101038.95;;;20.08;100.00
37878;BME280;23715;53.652;8.516;2022-09-09T17:35:03;101055.31;;;19.83;100.00
37878;BME280;23715;53.652;8.516;2022-09-09T17:40:05;101059.11;;;19.78;100.00
37878;BME280;23715;53.652;8.516;2022-09-09T17:45:06;101049.15;;;19.66;100.00
37878;BME280;23715;53.652;8.516;2022-09-09T17:50:07;101067.30;;;19.40;100.00
37878;BME280;23715;53.652;8.516;2022-09-09T17:55:08;101069.37;;;19.38;100.00
37878;BME280;23715;53.652;8.516;2022-09-09T18:00:09;101068.88;;;19.53;100.00
37878;BME280;23715;53.652;8.516;2022-09-09T18:05:11;101066.95;;;19.43;100.00
37878;BME280;23715;53.652;8.516;2022-09-09T18:10:12;101094.70;;;19.23;100.00
37878;BME280;23715;53.652;8.516;2022-09-09T18:15:13;101107.55;;;19.38;100.00
37878;BME280;23715;53.652;8.516;2022-09-09T18:20:14;101106.41;;;19.32;100.00
37878;BME280;23715;53.652;8.516;2022-09-09T18:25:15;101137.30;;;19.47;100.00
37878;BME280;23715;53.652;8.516;2022-09-09T18:30:15;101123.34;;;19.46;100.00
37878;BME280;23715;53.652;8.516;2022-09-09T18:35:16;101129.72;;;19.35;100.00
37878;BME280;23715;53.652;8.516;2022-09-09T18:40:16;101137.13;;;19.26;100.00
37878;BME280;23715;53.652;8.516;2022-09-09T18:45:17;101153.35;;;19.19;100.00
37878;BME280;23715;53.652;8.516;2022-09-09T18:50:18;101153.79;;;19.54;100.00
37878;BME280;23715;53.652;8.516;2022-09-09T18:55:18;101156.38;;;19.47;100.00
37878;BME280;23715;53.652;8.516;2022-09-09T19:00:18;101151.14;;;19.42;100.00
37878;BME280;23715;53.652;8.516;2022-09-09T19:05:18;101151.67;;;19.41;100.00
37878;BME280;23715;53.652;8.516;2022-09-09T19:10:18;101143.02;;;19.57;100.00
37878;BME280;23715;53.652;8.516;2022-09-09T19:15:19;101133.34;;;19.50;100.00
37878;BME280;23715;53.652;8.516;2022-09-09T19:20:19;101122.11;;;19.49;100.00
37878;BME280;23715;53.652;8.516;2022-09-09T19:25:22;101119.64;;;19.39;100.00
37878;BME280;23715;53.652;8.516;2022-09-09T19:30:22;101113.58;;;19.48;100.00
37878;BME280;23715;53.652;8.516;2022-09-09T19:35:24;101111.59;;;19.42;100.00
37878;BME280;23715;53.652;8.516;2022-09-09T19:40:24;101110.74;;;19.22;100.00
37878;BME280;23715;53.652;8.516;2022-09-09T19:45:25;101108.41;;;19.15;100.00
37878;BME280;23715;53.652;8.516;2022-09-09T19:50:25;101115.44;;;19.09;100.00
37878;BME280;23715;53.652;8.516;2022-09-09T19:55:27;101123.30;;;19.08;100.00
37878;BME280;23715;53.652;8.516;2022-09-09T20:00:27;101120.52;;;18.85;100.00
37878;BME280;23715;53.652;8.516;2022-09-09T20:05:28;101128.91;;;18.84;100.00
37878;BME280;23715;53.652;8.516;2022-09-09T20:10:30;101134.33;;;18.88;100.00
37878;BME280;23715;53.652;8.516;2022-09-09T20:15:30;101144.55;;;18.82;100.00
37878;BME280;23715;53.652;8.516;2022-09-09T20:20:30;101139.86;;;18.99;100.00
37878;BME280;23715;53.652;8.516;2022-09-09T20:25:29;101143.97;;;18.95;100.00
37878;BME280;23715;53.652;8.516;2022-09-09T20:30:30;101148.09;;;18.90;100.00
37878;BME280;23715;53.652;8.516;2022-09-09T20:35:32;101150.20;;;18.72;100.00
37878;BME280;23715;53.652;8.516;2022-09-09T20:40:38;101157.21;;;18.70;100.00
37878;BME280;23715;53.652;8.516;2022-09-09T20:45:40;101158.55;;;18.75;100.00
37878;BME280;23715;53.652;8.516;2022-09-09T20:50:41;101159.73;;;18.72;100.00
37878;BME280;23715;53.652;8.516;2022-09-09T20:55:42;101169.62;;;18.73;100.00
37878;BME280;23715;53.652;8.516;2022-09-09T21:00:42;101168.96;;;18.63;100.00
37878;BME280;23715;53.652;8.516;2022-09-09T21:05:43;101169.45;;;18.66;100.00
37878;BME280;23715;53.652;8.516;2022-09-09T21:10:44;101170.38;;;18.54;100.00
37878;BME280;23715;53.652;8.516;2022-09-09T21:15:45;101173.77;;;18.57;100.00
37878;BME280;23715;53.652;8.516;2022-09-09T21:20:46;101185.42;;;18.30;100.00
37878;BME280;23715;53.652;8.516;2022-09-09T21:25:47;101193.24;;;18.37;100.00
37878;BME280;23715;53.652;8.516;2022-09-09T21:30:49;101197.62;;;18.50;100.00
37878;BME280;23715;53.652;8.516;2022-09-09T21:35:50;101192.87;;;18.48;100.00
37878;BME280;23715;53.652;8.516;2022-09-09T21:40:50;101197.34;;;18.33;100.00
37878;BME280;23715;53.652;8.516;2022-09-09T21:45:51;101195.61;;;18.36;100.00
37878;BME280;23715;53.652;8.516;2022-09-09T21:50:52;101194.38;;;18.51;100.00
37878;BME280;23715;53.652;8.516;2022-09-09T21:55:52;101187.46;;;18.40;100.00
37878;BME280;23715;53.652;8.516;2022-09-09T22:00:52;101178.28;;;18.33;100.00
37878;BME280;23715;53.652;8.516;2022-09-09T22:05:52;101169.65;;;18.21;100.00
37878;BME280;23715;53.652;8.516;2022-09-09T22:10:52;101167.12;;;18.03;100.00
37878;BME280;23715;53.652;8.516;2022-09-09T22:15:53;101179.58;;;17.85;100.00
37878;BME280;23715;53.652;8.516;2022-09-09T22:20:55;101178.34;;;17.71;100.00
37878;BME280;23715;53.652;8.516;2022-09-09T22:25:55;101186.86;;;17.68;100.00
37878;BME280;23715;53.652;8.516;2022-09-09T22:30:56;101183.45;;;17.50;100.00
37878;BME280;23715;53.652;8.516;2022-09-09T22:35:56;101192.62;;;17.41;100.00
37878;BME280;23715;53.652;8.516;2022-09-09T22:40:56;101190.92;;;17.56;100.00
37878;BME280;23715;53.652;8.516;2022-09-09T22:45:56;101185.13;;;17.51;100.00
37878;BME280;23715;53.652;8.516;2022-09-09T22:51:00;101185.47;;;17.31;100.00
37878;BME280;23715;53.652;8.516;2022-09-09T22:56:00;101187.86;;;17.34;100.00
37878;BME280;23715;53.652;8.516;2022-09-09T23:01:07;101193.13;;;17.36;100.00
37878;BME280;23715;53.652;8.516;2022-09-09T23:06:04;101195.17;;;17.38;100.00
37878;BME280;23715;53.652;8.516;2022-09-09T23:11:09;101189.57;;;17.40;100.00
37878;BME280;23715;53.652;8.516;2022-09-09T23:16:16;101194.45;;;17.28;100.00
37878;BME280;23715;53.652;8.516;2022-09-09T23:21:17;101197.53;;;17.45;100.00
37878;BME280;23715;53.652;8.516;2022-09-09T23:26:18;101195.52;;;17.64;100.00
37878;BME280;23715;53.652;8.516;2022-09-09T23:31:20;101191.11;;;17.83;100.00
37878;BME280;23715;53.652;8.516;2022-09-09T23:36:24;101191.11;;;17.83;100.00
37878;BME280;23715;53.652;8.516;2022-09-09T23:41:24;101181.61;;;17.87;100.00
37878;BME280;23715;53.652;8.516;2022-09-09T23:46:27;101174.28;;;17.92;100.00
37878;BME280;23715;53.652;8.516;2022-09-09T23:51:29;101170.17;;;18.00;100.00
37878;BME280;23715;53.652;8.516;2022-09-09T23:56:38;101173.92;;;17.79;100.00
